createdAt,value
2023-08-11T00:00:57.026Z,61.72
2023-08-11T00:02:58.709Z,61.24
2023-08-11T00:05:00.377Z,61.33
2023-08-11T00:07:03.498Z,61.07
2023-08-11T00:09:08.705Z,61.60
2023-08-11T00:11:12.553Z,61.61
2023-08-11T00:13:14.395Z,62.51
2023-08-11T00:15:16.187Z,64.29
2023-08-11T00:17:17.911Z,64.62
2023-08-11T00:19:19.504Z,64.67
2023-08-11T00:21:21.176Z,64.39
2023-08-11T00:23:22.910Z,64.59
2023-08-11T00:25:24.871Z,65.38
2023-08-11T00:27:26.643Z,65.25
2023-08-11T00:29:28.438Z,65.15
2023-08-11T00:31:30.385Z,64.96
2023-08-11T00:33:32.072Z,64.91
2023-08-11T00:35:34.625Z,64.60
2023-08-11T00:37:36.669Z,64.60
2023-08-11T00:39:38.864Z,64.38
2023-08-11T00:41:40.515Z,64.42
2023-08-11T00:43:44.047Z,64.01
2023-08-11T00:45:46.625Z,64.02
2023-08-11T00:47:51.967Z,63.91
2023-08-11T00:49:53.935Z,63.73
2023-08-11T00:51:56.856Z,63.54
2023-08-11T00:53:58.517Z,63.65
2023-08-11T00:56:00.770Z,63.18
2023-08-11T00:58:02.428Z,63.01
2023-08-11T01:00:13.733Z,62.98
2023-08-11T01:02:16.161Z,62.41
2023-08-11T01:04:19.026Z,62.26
2023-08-11T01:06:29.868Z,62.24
2023-08-11T01:08:38.309Z,61.72
2023-08-11T01:10:46.468Z,61.63
2023-08-11T01:13:04.836Z,61.96
2023-08-11T01:15:21.047Z,61.73
2023-08-11T01:17:22.611Z,61.66
2023-08-11T01:19:33.377Z,61.74
2023-08-11T01:21:39.961Z,61.51
2023-08-11T01:23:42.184Z,61.07
2023-08-11T01:25:43.761Z,61.03
2023-08-11T01:27:48.386Z,60.88
2023-08-11T01:29:50.729Z,61.11
2023-08-11T01:31:52.339Z,60.89
2023-08-11T01:33:53.890Z,60.84
2023-08-11T01:35:56.035Z,61.32
2023-08-11T01:37:57.690Z,61.34
2023-08-11T01:40:00.644Z,61.26
2023-08-11T01:42:02.767Z,61.36
2023-08-11T01:44:04.848Z,61.19
2023-08-11T01:46:06.738Z,61.19
2023-08-11T01:48:08.675Z,61.32
2023-08-11T01:50:11.357Z,61.50
2023-08-11T01:52:13.197Z,61.71
2023-08-11T01:54:15.074Z,61.66
2023-08-11T01:56:16.615Z,61.87
2023-08-11T01:58:18.127Z,61.81
2023-08-11T02:00:22.422Z,61.83
2023-08-11T02:02:24.953Z,61.98
2023-08-11T02:04:26.839Z,62.27
2023-08-11T02:06:28.461Z,62.23
2023-08-11T02:08:30.002Z,62.65
2023-08-11T02:10:32.703Z,62.62
2023-08-11T02:12:34.198Z,62.69
2023-08-11T02:14:35.796Z,62.66
2023-08-11T02:16:37.608Z,63.10
2023-08-11T02:18:39.433Z,62.98
2023-08-11T02:20:42.662Z,63.40
2023-08-11T02:22:44.998Z,63.43
2023-08-11T02:24:46.631Z,63.63
2023-08-11T02:26:48.360Z,63.41
2023-08-11T02:28:50.219Z,63.66
2023-08-11T02:30:51.985Z,63.72
2023-08-11T02:32:53.649Z,63.61
2023-08-11T02:34:56.082Z,63.93
2023-08-11T02:36:58.042Z,63.88
2023-08-11T02:39:00.840Z,64.31
2023-08-11T02:41:02.530Z,64.37
2023-08-11T02:43:04.173Z,64.14
2023-08-11T02:45:10.687Z,64.44
2023-08-11T02:47:13.373Z,64.60
2023-08-11T02:49:15.092Z,64.30
2023-08-11T02:51:18.722Z,64.35
2023-08-11T02:53:20.340Z,64.11
2023-08-11T02:55:22.104Z,64.18
2023-08-11T02:57:26.439Z,64.13
2023-08-11T02:59:28.728Z,64.23
2023-08-11T03:01:30.479Z,64.10
2023-08-11T03:03:32.340Z,64.18
2023-08-11T03:05:34.408Z,64.41
2023-08-11T03:07:36.397Z,64.21
2023-08-11T03:09:38.361Z,64.24
2023-08-11T03:11:40.993Z,64.15
2023-08-11T03:13:44.736Z,63.70
2023-08-11T03:15:46.364Z,63.73
2023-08-11T03:17:49.418Z,64.24
2023-08-11T03:19:54.021Z,64.28
2023-08-11T03:21:55.833Z,64.55
2023-08-11T03:23:57.645Z,64.73
2023-08-11T03:25:59.351Z,64.78
2023-08-11T03:28:01.954Z,64.96
2023-08-11T03:30:04.329Z,64.75
2023-08-11T03:32:06.327Z,64.86
2023-08-11T03:34:09.452Z,65.14
2023-08-11T03:36:11.064Z,64.94
2023-08-11T03:38:19.899Z,64.87
2023-08-11T03:40:22.417Z,64.89
2023-08-11T03:42:24.247Z,64.66
2023-08-11T03:44:26.017Z,64.58
2023-08-11T03:46:28.014Z,64.47
2023-08-11T03:48:30.410Z,64.44
2023-08-11T03:50:32.623Z,64.35
2023-08-11T03:52:34.858Z,64.33
2023-08-11T03:54:45.073Z,64.51
2023-08-11T03:56:47.554Z,64.65
2023-08-11T03:58:49.160Z,64.42
2023-08-11T04:00:50.787Z,64.33
2023-08-11T04:02:52.551Z,64.45
2023-08-11T04:04:57.221Z,64.22
2023-08-11T04:06:58.882Z,63.91
2023-08-11T04:09:01.006Z,64.03
2023-08-11T04:11:03.697Z,64.29
2023-08-11T04:13:06.241Z,64.33
2023-08-11T04:15:10.457Z,63.89
2023-08-11T04:17:14.952Z,63.68
2023-08-11T04:19:16.488Z,63.64
2023-08-11T04:21:19.419Z,63.65
2023-08-11T04:23:21.765Z,63.47
2023-08-11T04:25:23.414Z,63.42
2023-08-11T04:27:25.016Z,63.58
2023-08-11T04:29:27.382Z,63.38
2023-08-11T04:31:29.218Z,62.71
2023-08-11T04:33:33.151Z,62.77
2023-08-11T04:35:34.791Z,62.59
2023-08-11T04:37:37.191Z,62.58
2023-08-11T04:39:39.200Z,63.17
2023-08-11T04:41:42.012Z,63.19
2023-08-11T04:43:44.028Z,63.34
2023-08-11T04:45:45.739Z,63.63
2023-08-11T04:47:47.887Z,63.60
2023-08-11T04:49:49.521Z,63.21
2023-08-11T04:51:51.222Z,63.09
2023-08-11T04:53:53.417Z,63.52
2023-08-11T04:55:55.703Z,63.97
2023-08-11T04:57:59.223Z,64.87
2023-08-11T05:00:04.037Z,64.81
2023-08-11T05:02:08.659Z,64.59
2023-08-11T05:04:11.215Z,64.92
2023-08-11T05:06:14.168Z,64.68
2023-08-11T05:08:16.060Z,65.32
2023-08-11T05:10:20.096Z,65.99
2023-08-11T05:12:21.951Z,67.94
2023-08-11T05:14:24.381Z,68.68
2023-08-11T05:16:29.208Z,68.31
2023-08-11T05:18:42.959Z,68.73
2023-08-11T05:20:47.772Z,69.04
2023-08-11T05:22:49.588Z,69.04
2023-08-11T05:24:51.468Z,68.26
2023-08-11T05:26:56.011Z,67.33
2023-08-11T05:28:57.634Z,67.55
2023-08-11T05:30:59.334Z,68.66
2023-08-11T05:33:01.025Z,68.03
2023-08-11T05:35:02.763Z,69.03
2023-08-11T05:37:05.992Z,68.81
2023-08-11T05:39:09.477Z,69.19
2023-08-11T05:41:13.081Z,69.63
2023-08-11T05:43:14.976Z,71.09
2023-08-11T05:45:18.213Z,71.45
2023-08-11T05:47:20.498Z,72.00
2023-08-11T05:49:22.662Z,72.68
2023-08-11T05:51:24.901Z,72.31
2023-08-11T05:53:27.410Z,71.77
2023-08-11T05:55:30.369Z,69.90
2023-08-11T05:57:32.235Z,68.61
2023-08-11T05:59:37.337Z,67.57
2023-08-11T06:01:40.535Z,67.23
2023-08-11T06:03:42.255Z,67.14
2023-08-11T06:05:44.042Z,66.05
2023-08-11T06:07:55.789Z,65.10
2023-08-11T06:10:02.802Z,64.99
2023-08-11T06:12:04.903Z,64.69
2023-08-11T06:14:06.418Z,64.34
2023-08-11T06:16:08.032Z,64.33
2023-08-11T06:18:09.953Z,65.15
2023-08-11T06:20:20.603Z,66.73
2023-08-11T06:22:28.422Z,67.51
2023-08-11T06:24:30.452Z,66.81
2023-08-11T06:26:32.065Z,66.57
2023-08-11T06:28:35.540Z,67.63
2023-08-11T06:30:37.425Z,67.38
2023-08-11T06:32:39.248Z,67.08
2023-08-11T06:34:41.685Z,67.03
2023-08-11T06:36:44.525Z,66.21
2023-08-11T06:38:46.143Z,65.57
2023-08-11T06:40:48.928Z,64.97
2023-08-11T06:42:51.488Z,65.39
2023-08-11T06:44:53.341Z,64.87
2023-08-11T06:46:55.032Z,64.37
2023-08-11T06:48:56.612Z,63.58
2023-08-11T06:50:58.503Z,63.25
2023-08-11T06:53:00.780Z,62.78
2023-08-11T06:55:02.464Z,61.63
2023-08-11T06:57:07.143Z,61.04
2023-08-11T06:59:09.206Z,61.30
2023-08-11T07:01:10.979Z,62.57
2023-08-11T07:03:12.648Z,64.21
2023-08-11T07:05:14.500Z,63.86
2023-08-11T07:07:16.357Z,62.88
2023-08-11T07:09:18.197Z,62.43
2023-08-11T07:11:19.907Z,61.19
2023-08-11T07:13:21.416Z,60.44
2023-08-11T07:15:23.072Z,59.70
2023-08-11T07:17:27.061Z,59.13
2023-08-11T07:19:30.228Z,58.70
2023-08-11T07:21:31.843Z,58.56
2023-08-11T07:23:33.635Z,59.15
2023-08-11T07:25:35.261Z,58.99
2023-08-11T07:27:36.930Z,58.31
2023-08-11T07:29:39.653Z,58.80
2023-08-11T07:31:41.316Z,59.14
2023-08-11T07:33:43.867Z,59.17
2023-08-11T07:35:45.665Z,59.27
2023-08-11T07:37:47.242Z,59.27
2023-08-11T07:39:49.470Z,59.02
2023-08-11T07:41:52.350Z,58.49
2023-08-11T07:43:54.909Z,57.40
2023-08-11T07:45:56.738Z,57.05
2023-08-11T07:47:59.126Z,57.12
2023-08-11T07:50:00.813Z,56.82
2023-08-11T07:52:02.622Z,56.91
2023-08-11T07:54:05.721Z,56.91
2023-08-11T07:56:07.402Z,56.83
2023-08-11T07:58:09.330Z,57.08
2023-08-11T08:00:17.429Z,57.55
2023-08-11T08:02:19.086Z,57.35
2023-08-11T08:04:20.754Z,56.87
2023-08-11T08:06:22.499Z,56.41
2023-08-11T08:08:24.063Z,55.30
2023-08-11T08:10:26.549Z,53.87
2023-08-11T08:12:28.215Z,53.42
2023-08-11T08:14:29.777Z,53.75
2023-08-11T08:16:31.448Z,53.28
2023-08-11T08:18:33.609Z,51.63
2023-08-11T08:20:35.888Z,51.16
2023-08-11T08:22:37.668Z,50.72
2023-08-11T08:24:40.978Z,50.35
2023-08-11T08:26:42.825Z,50.65
2023-08-11T08:28:45.011Z,50.77
2023-08-11T08:30:46.664Z,50.12
2023-08-11T08:32:48.331Z,49.94
2023-08-11T08:34:50.300Z,50.18
2023-08-11T08:36:53.993Z,49.82
2023-08-11T08:38:56.227Z,49.82
2023-08-11T08:40:58.067Z,49.81
2023-08-11T08:42:59.618Z,49.10
2023-08-11T08:45:01.529Z,48.19
2023-08-11T08:47:04.148Z,48.16
2023-08-11T08:49:23.690Z,47.92
2023-08-11T08:51:25.288Z,48.09
2023-08-11T08:53:27.326Z,47.86
2023-08-11T08:55:29.810Z,47.82
2023-08-11T08:57:31.360Z,47.68
2023-08-11T08:59:33.035Z,48.30
2023-08-11T09:01:37.889Z,49.13
2023-08-11T09:03:41.466Z,49.30
2023-08-11T09:05:43.250Z,49.58
2023-08-11T09:07:44.833Z,48.90
2023-08-11T09:09:46.579Z,48.73
2023-08-11T09:11:49.740Z,48.30
2023-08-11T09:13:51.270Z,48.82
2023-08-11T09:15:52.934Z,47.94
2023-08-11T09:17:54.671Z,47.52
2023-08-11T09:19:58.601Z,47.54
2023-08-11T09:22:00.227Z,47.56
2023-08-11T09:24:01.868Z,46.95
2023-08-11T09:26:04.096Z,46.61
2023-08-11T09:28:06.153Z,46.17
2023-08-11T09:30:10.724Z,45.23
2023-08-11T09:32:12.481Z,44.75
2023-08-11T09:40:32.225Z,45.59
2023-08-11T09:45:36.652Z,45.57
2023-08-11T09:47:38.388Z,45.79
2023-08-11T09:49:40.273Z,45.34
2023-08-11T09:51:42.637Z,44.73
2023-08-11T09:53:44.219Z,45.29
2023-08-11T09:55:45.966Z,45.84
2023-08-11T09:57:47.518Z,45.22
2023-08-11T09:59:49.022Z,44.20
2023-08-11T10:01:50.767Z,43.66
2023-08-11T10:03:53.334Z,43.09
2023-08-11T10:05:55.166Z,42.04
2023-08-11T10:07:56.697Z,41.53
2023-08-11T10:09:58.435Z,40.83
2023-08-11T10:12:00.610Z,41.84
2023-08-11T10:14:03.466Z,43.58
2023-08-11T10:16:05.202Z,45.23
2023-08-11T10:18:07.355Z,46.12
2023-08-11T10:20:10.419Z,45.90
2023-08-11T10:22:12.615Z,46.16
2023-08-11T10:24:14.462Z,46.61
2023-08-11T10:26:16.170Z,46.75
2023-08-11T10:28:17.931Z,46.29
2023-08-11T10:30:19.567Z,46.28
2023-08-11T10:32:23.329Z,46.30
2023-08-11T10:34:26.130Z,46.73
2023-08-11T10:36:28.065Z,47.04
2023-08-11T10:38:33.370Z,46.57
2023-08-11T10:40:35.648Z,46.63
2023-08-11T10:42:40.582Z,46.74
2023-08-11T10:44:46.421Z,46.78
2023-08-11T10:46:48.936Z,47.21
2023-08-11T10:49:14.081Z,47.17
2023-08-11T10:51:34.357Z,46.92
2023-08-11T10:53:40.237Z,47.16
2023-08-11T10:55:41.902Z,46.21
2023-08-11T10:57:43.501Z,47.23
2023-08-11T10:59:45.017Z,48.16
2023-08-11T11:01:47.598Z,47.87
2023-08-11T11:03:50.616Z,47.85
2023-08-11T11:05:52.619Z,47.80
2023-08-11T11:07:54.734Z,47.86
2023-08-11T11:09:56.351Z,47.91
2023-08-11T11:12:07.415Z,47.78
2023-08-11T11:14:09.749Z,47.31
2023-08-11T11:16:11.364Z,47.79
2023-08-11T11:18:13.065Z,48.10
2023-08-11T11:20:14.679Z,47.46
2023-08-11T11:22:16.203Z,47.54
2023-08-11T11:24:18.469Z,47.39
2023-08-11T11:26:27.481Z,48.31
2023-08-11T11:28:31.272Z,48.10
2023-08-11T11:30:33.597Z,48.07
2023-08-11T11:32:35.362Z,47.85
2023-08-11T11:34:41.201Z,47.18
2023-08-11T11:39:48.401Z,47.21
2023-08-11T11:41:49.998Z,46.43
2023-08-11T11:43:56.070Z,46.37
2023-08-11T11:45:59.569Z,47.04
2023-08-11T11:48:02.455Z,45.97
2023-08-11T11:50:06.420Z,46.53
2023-08-11T11:52:08.385Z,46.40
2023-08-11T11:54:10.224Z,46.95
2023-08-11T11:56:15.744Z,46.48
2023-08-11T11:58:17.830Z,46.62
2023-08-11T12:00:20.091Z,47.24
2023-08-11T12:02:23.933Z,46.45
2023-08-11T12:04:26.089Z,46.10
2023-08-11T12:06:28.385Z,44.91
2023-08-11T12:08:30.016Z,45.64
2023-08-11T12:10:32.622Z,45.21
2023-08-11T12:12:34.857Z,44.11
2023-08-11T12:14:36.542Z,43.32
2023-08-11T12:16:38.247Z,42.88
2023-08-11T12:18:40.297Z,43.04
2023-08-11T12:20:41.972Z,43.22
2023-08-11T12:22:44.939Z,43.83
2023-08-11T12:24:46.841Z,44.52
2023-08-11T12:26:49.588Z,44.24
2023-08-11T12:28:51.391Z,44.74
2023-08-11T12:30:53.095Z,44.39
2023-08-11T12:32:54.770Z,44.50
2023-08-11T12:34:56.433Z,45.66
2023-08-11T12:36:58.024Z,44.84
2023-08-11T12:38:59.693Z,45.45
2023-08-11T12:41:02.376Z,46.59
2023-08-11T12:43:04.804Z,46.19
2023-08-11T12:45:06.742Z,46.38
2023-08-11T12:47:08.442Z,45.87
2023-08-11T12:49:12.710Z,45.09
2023-08-11T12:51:15.823Z,45.13
2023-08-11T12:53:17.503Z,44.59
2023-08-11T12:55:19.221Z,43.72
2023-08-11T12:57:20.913Z,42.89
2023-08-11T12:59:22.665Z,43.02
2023-08-11T13:01:24.296Z,42.67
2023-08-11T13:03:26.277Z,42.54
2023-08-11T13:05:28.356Z,41.74
2023-08-11T13:07:29.970Z,41.71
2023-08-11T13:09:32.986Z,41.18
2023-08-11T13:11:34.560Z,41.65
2023-08-11T13:13:36.240Z,42.46
2023-08-11T13:15:37.941Z,43.01
2023-08-11T13:17:39.748Z,42.84
2023-08-11T13:19:41.489Z,42.81
2023-08-11T13:21:43.767Z,42.22
2023-08-11T13:23:46.067Z,41.92
2023-08-11T13:25:48.015Z,42.29
2023-08-11T13:27:49.690Z,43.55
2023-08-11T13:29:52.590Z,45.10
2023-08-11T13:31:54.945Z,46.15
2023-08-11T13:33:56.962Z,45.49
2023-08-11T13:35:58.800Z,46.01
2023-08-11T13:38:00.652Z,45.52
2023-08-11T13:40:02.419Z,45.95
2023-08-11T13:42:04.004Z,44.64
2023-08-11T13:44:08.537Z,44.67
2023-08-11T13:46:10.883Z,44.16
2023-08-11T13:48:12.688Z,44.71
2023-08-11T13:50:19.515Z,45.24
2023-08-11T13:52:21.253Z,45.61
2023-08-11T13:54:24.947Z,45.88
2023-08-11T13:56:26.914Z,44.83
2023-08-11T13:58:28.648Z,44.89
2023-08-11T14:00:31.961Z,45.21
2023-08-11T14:02:33.749Z,44.33
2023-08-11T14:04:36.055Z,43.96
2023-08-11T14:06:37.794Z,43.71
2023-08-11T14:08:40.331Z,43.58
2023-08-11T14:10:45.394Z,44.50
2023-08-11T14:12:49.831Z,44.80
2023-08-11T14:14:51.754Z,45.13
2023-08-11T14:16:53.408Z,45.18
2023-08-11T14:18:56.657Z,45.26
2023-08-11T14:20:58.652Z,45.48
2023-08-11T14:23:00.338Z,45.32
2023-08-11T14:25:02.008Z,44.54
2023-08-11T14:27:03.857Z,44.79
2023-08-11T14:29:06.807Z,44.41
2023-08-11T14:31:08.449Z,44.77
2023-08-11T14:33:10.093Z,43.99
2023-08-11T14:35:11.753Z,44.21
2023-08-11T14:37:16.784Z,44.21
2023-08-11T14:39:19.132Z,43.59
2023-08-11T14:41:20.710Z,42.46
2023-08-11T14:43:22.441Z,41.76
2023-08-11T14:45:24.082Z,41.06
2023-08-11T14:47:25.720Z,41.14
2023-08-11T14:49:27.467Z,40.93
2023-08-11T14:51:29.071Z,40.71
2023-08-11T14:53:31.399Z,40.66
2023-08-11T14:55:33.118Z,40.88
2023-08-11T14:57:34.693Z,40.58
2023-08-11T14:59:36.286Z,40.19
2023-08-11T15:01:38.012Z,39.66
2023-08-11T15:03:40.097Z,39.42
2023-08-11T15:05:42.108Z,39.09
2023-08-11T15:07:43.862Z,38.42
2023-08-11T15:09:48.865Z,38.73
2023-08-11T15:11:50.843Z,39.16
2023-08-11T15:13:52.676Z,38.82
2023-08-11T15:15:54.340Z,38.91
2023-08-11T15:17:55.974Z,38.74
2023-08-11T15:19:57.777Z,38.12
2023-08-11T15:21:59.696Z,38.03
2023-08-11T15:24:01.350Z,37.79
2023-08-11T15:26:05.060Z,37.98
2023-08-11T15:28:06.853Z,38.25
2023-08-11T15:30:08.658Z,38.81
2023-08-11T15:32:13.013Z,39.44
2023-08-11T15:34:14.903Z,39.56
2023-08-11T15:36:17.124Z,39.97
2023-08-11T15:38:22.438Z,40.40
2023-08-11T15:40:24.391Z,41.55
2023-08-11T15:42:26.013Z,43.00
2023-08-11T15:44:27.838Z,43.94
2023-08-11T15:46:29.630Z,44.73
2023-08-11T15:48:32.357Z,45.83
2023-08-11T15:50:34.168Z,46.32
2023-08-11T15:52:36.083Z,46.71
2023-08-11T15:54:37.700Z,46.71
2023-08-11T15:56:39.428Z,46.67
2023-08-11T15:58:41.389Z,46.86
2023-08-11T16:00:43.998Z,46.42
2023-08-11T16:02:46.425Z,46.70
2023-08-11T16:04:48.098Z,47.12
2023-08-11T16:06:49.781Z,47.32
2023-08-11T16:08:52.292Z,46.97
2023-08-11T16:10:54.041Z,47.46
2023-08-11T16:12:55.751Z,47.65
2023-08-11T16:14:57.410Z,48.03
2023-08-11T16:16:59.987Z,48.11
2023-08-11T16:19:01.720Z,48.46
2023-08-11T16:21:06.922Z,48.06
2023-08-11T16:23:08.636Z,47.96
2023-08-11T16:25:10.453Z,48.29
2023-08-11T16:27:12.304Z,48.51
2023-08-11T16:29:14.253Z,48.22
2023-08-11T16:31:16.118Z,48.42
2023-08-11T16:33:17.717Z,48.28
2023-08-11T16:35:20.850Z,48.22
2023-08-11T16:37:24.320Z,48.30
2023-08-11T16:39:26.216Z,47.78
2023-08-11T16:41:27.887Z,47.86
2023-08-11T16:43:29.633Z,47.65
2023-08-11T16:45:31.873Z,47.68
2023-08-11T16:47:33.786Z,47.74
2023-08-11T16:49:35.457Z,48.17
2023-08-11T16:51:37.328Z,49.09
2023-08-11T16:53:39.030Z,48.90
2023-08-11T16:55:40.924Z,48.63
2023-08-11T16:57:42.666Z,48.61
2023-08-11T16:59:45.430Z,48.50
2023-08-11T17:01:47.067Z,48.53
2023-08-11T17:03:52.229Z,48.61
2023-08-11T17:05:54.113Z,48.49
2023-08-11T17:08:04.684Z,48.68
2023-08-11T17:10:06.728Z,48.32
2023-08-11T17:12:09.313Z,48.14
2023-08-11T17:14:13.507Z,47.76
2023-08-11T17:16:18.601Z,47.75
2023-08-11T17:18:23.806Z,48.06
2023-08-11T17:20:25.479Z,48.03
2023-08-11T17:22:27.436Z,48.01
2023-08-11T17:24:29.262Z,48.16
2023-08-11T17:26:30.892Z,47.80
2023-08-11T17:28:35.658Z,48.14
2023-08-11T17:30:37.339Z,48.30
2023-08-11T17:32:39.724Z,48.32
2023-08-11T17:34:56.602Z,48.30
2023-08-11T17:36:59.846Z,48.36
2023-08-11T17:39:01.541Z,48.67
2023-08-11T17:41:03.277Z,48.80
2023-08-11T17:43:04.954Z,48.49
2023-08-11T17:45:06.954Z,48.44
2023-08-11T17:47:10.266Z,48.59
2023-08-11T17:49:11.917Z,48.96
2023-08-11T17:51:13.906Z,48.83
2023-08-11T17:53:15.586Z,48.80
2023-08-11T17:55:18.835Z,48.97
2023-08-11T17:57:20.728Z,48.98
2023-08-11T17:59:22.330Z,49.22
2023-08-11T18:01:26.432Z,49.15
2023-08-11T18:03:28.817Z,49.23
2023-08-11T18:05:30.630Z,49.57
2023-08-11T18:07:32.273Z,49.73
2023-08-11T18:09:33.937Z,50.44
2023-08-11T18:11:36.192Z,50.83
2023-08-11T18:13:40.624Z,51.11
2023-08-11T18:15:44.019Z,51.49
2023-08-11T18:17:45.678Z,51.44
2023-08-11T18:19:47.424Z,51.81
2023-08-11T18:21:49.152Z,52.27
2023-08-11T18:23:50.774Z,52.56
2023-08-11T18:25:52.476Z,52.54
2023-08-11T18:27:56.601Z,52.77
2023-08-11T18:29:58.166Z,52.89
2023-08-11T18:31:59.922Z,53.12
2023-08-11T18:34:02.037Z,52.93
2023-08-11T18:36:03.783Z,53.19
2023-08-11T18:38:05.419Z,53.21
2023-08-11T18:40:07.620Z,53.13
2023-08-11T18:42:09.465Z,53.50
2023-08-11T18:44:11.695Z,53.68
2023-08-11T18:46:13.395Z,53.26
2023-08-11T18:48:16.053Z,53.55
2023-08-11T18:50:17.724Z,52.84
2023-08-11T18:52:19.354Z,52.97
2023-08-11T18:54:21.081Z,52.83
2023-08-11T18:56:22.792Z,52.87
2023-08-11T18:58:26.989Z,53.13
2023-08-11T19:00:28.613Z,53.18
2023-08-11T19:02:30.208Z,53.02
2023-08-11T19:04:31.874Z,53.54
2023-08-11T19:06:35.529Z,53.34
2023-08-11T19:08:37.167Z,53.56
2023-08-11T19:10:38.819Z,53.56
2023-08-11T19:12:40.490Z,53.53
2023-08-11T19:14:42.070Z,53.11
2023-08-11T19:16:44.248Z,53.60
2023-08-11T19:18:47.129Z,53.13
2023-08-11T19:20:51.588Z,53.29
2023-08-11T19:22:53.262Z,53.46
2023-08-11T19:24:55.057Z,53.59
2023-08-11T19:26:56.606Z,53.04
2023-08-11T19:28:59.504Z,52.86
2023-08-11T19:31:01.086Z,53.31
2023-08-11T19:33:03.024Z,53.23
2023-08-11T19:35:05.264Z,52.92
2023-08-11T19:37:06.845Z,53.13
2023-08-11T19:39:09.800Z,53.13
2023-08-11T19:41:11.489Z,53.32
2023-08-11T19:43:13.018Z,53.49
2023-08-11T19:45:15.014Z,53.59
2023-08-11T19:47:16.574Z,53.35
2023-08-11T19:49:21.498Z,53.51
2023-08-11T19:51:23.896Z,53.38
2023-08-11T19:53:25.510Z,53.64
2023-08-11T19:55:27.078Z,53.26
2023-08-11T19:57:28.766Z,53.32
2023-08-11T19:59:30.302Z,53.58
2023-08-11T20:01:31.886Z,53.76
2023-08-11T20:03:33.680Z,53.64
2023-08-11T20:05:35.910Z,53.76
2023-08-11T20:07:38.258Z,53.62
2023-08-11T20:09:41.041Z,53.37
2023-08-11T20:11:42.858Z,53.67
2023-08-11T20:13:44.441Z,53.74
2023-08-11T20:15:47.979Z,53.58
2023-08-11T20:17:49.743Z,53.82
2023-08-11T20:19:51.443Z,53.94
2023-08-11T20:21:53.645Z,53.80
2023-08-11T20:23:55.376Z,53.81
2023-08-11T20:25:56.842Z,53.69
2023-08-11T20:27:59.013Z,53.90
2023-08-11T20:30:00.610Z,54.04
2023-08-11T20:32:04.545Z,53.84
2023-08-11T20:34:06.793Z,54.18
2023-08-11T20:36:08.484Z,54.16
2023-08-11T20:38:09.991Z,54.33
2023-08-11T20:40:13.636Z,54.14
2023-08-11T20:42:16.442Z,54.48
2023-08-11T20:44:18.093Z,54.23
2023-08-11T20:46:19.690Z,54.26
2023-08-11T20:48:21.569Z,54.08
2023-08-11T20:50:23.158Z,54.02
2023-08-11T20:52:24.838Z,54.28
2023-08-11T20:54:26.612Z,54.35
2023-08-11T20:56:28.149Z,54.66
2023-08-11T20:58:30.488Z,54.61
2023-08-11T21:00:32.046Z,54.62
2023-08-11T21:02:33.586Z,54.45
2023-08-11T21:04:35.395Z,54.50
2023-08-11T21:06:36.996Z,54.85
2023-08-11T21:08:44.877Z,54.90
2023-08-11T21:10:46.939Z,54.84
2023-08-11T21:12:48.535Z,54.84
2023-08-11T21:14:50.124Z,55.09
2023-08-11T21:16:51.849Z,54.95
2023-08-11T21:18:53.616Z,55.00
2023-08-11T21:20:55.208Z,55.20
2023-08-11T21:22:56.727Z,55.33
2023-08-11T21:24:58.316Z,55.31
2023-08-11T21:27:00.041Z,55.07
2023-08-11T21:29:01.881Z,55.27
2023-08-11T21:31:16.714Z,55.31
2023-08-11T21:33:18.899Z,55.45
2023-08-11T21:35:20.758Z,55.36
2023-08-11T21:37:22.355Z,55.64
2023-08-11T21:39:23.939Z,55.87
2023-08-11T21:41:25.664Z,55.85
2023-08-11T21:43:27.422Z,56.05
2023-08-11T21:45:29.073Z,56.07
2023-08-11T21:47:33.727Z,56.14
2023-08-11T21:49:36.938Z,56.64
2023-08-11T21:51:38.642Z,56.38
2023-08-11T21:53:41.214Z,56.43
2023-08-11T21:55:43.039Z,56.58
2023-08-11T21:57:44.699Z,56.51
2023-08-11T21:59:46.349Z,56.54
2023-08-11T22:01:48.141Z,56.57
2023-08-11T22:03:49.830Z,56.65
2023-08-11T22:05:51.401Z,56.42
2023-08-11T22:07:56.167Z,56.64
2023-08-11T22:09:57.665Z,56.64
2023-08-11T22:11:59.332Z,56.66
2023-08-11T22:14:01.180Z,56.62
2023-08-11T22:16:02.727Z,56.68
2023-08-11T22:18:06.075Z,56.63
2023-08-11T22:20:09.548Z,56.49
2023-08-11T22:22:15.091Z,56.48
2023-08-11T22:24:24.026Z,56.72
2023-08-11T22:26:32.383Z,56.90
2023-08-11T22:28:33.992Z,56.79
2023-08-11T22:30:36.185Z,56.14
2023-08-11T22:32:37.987Z,56.23
2023-08-11T22:34:39.517Z,56.37
2023-08-11T22:36:41.057Z,56.29
2023-08-11T22:38:42.908Z,56.15
2023-08-11T22:40:44.555Z,56.23
2023-08-11T22:42:46.173Z,56.29
2023-08-11T22:44:47.848Z,56.35
2023-08-11T22:46:49.389Z,56.07
2023-08-11T22:48:51.094Z,56.09
2023-08-11T22:50:52.652Z,56.03
2023-08-11T22:52:54.366Z,56.01
2023-08-11T22:54:56.096Z,56.00
2023-08-11T22:56:57.693Z,56.15
2023-08-11T22:59:00.308Z,56.26
2023-08-11T23:01:01.949Z,56.32
2023-08-11T23:03:04.796Z,56.44
2023-08-11T23:05:07.246Z,56.30
2023-08-11T23:07:09.232Z,56.08
2023-08-11T23:09:11.240Z,56.30
2023-08-11T23:11:12.944Z,56.19
2023-08-11T23:13:17.288Z,56.42
2023-08-11T23:15:19.472Z,56.35
2023-08-11T23:17:26.205Z,56.31
2023-08-11T23:19:27.877Z,56.33
2023-08-11T23:21:29.624Z,56.21
2023-08-11T23:23:31.226Z,56.37
2023-08-11T23:25:32.908Z,56.45
2023-08-11T23:27:34.542Z,56.44
2023-08-11T23:29:36.281Z,56.72
2023-08-11T23:31:39.178Z,56.49
2023-08-11T23:33:42.669Z,56.46
2023-08-11T23:35:44.321Z,56.52
2023-08-11T23:37:46.336Z,56.59
2023-08-11T23:39:47.905Z,56.66
2023-08-11T23:41:49.607Z,56.48
2023-08-11T23:43:51.232Z,56.72
2023-08-11T23:45:52.872Z,56.53
2023-08-11T23:47:54.788Z,56.55
2023-08-11T23:49:56.809Z,56.33
2023-08-11T23:51:58.360Z,56.28
2023-08-11T23:54:00.259Z,56.24
2023-08-11T23:56:01.972Z,56.37
2023-08-11T23:58:03.716Z,56.17
